Darstellungsparameter: Aktuell verwendete Einstellungen:
Skalierung der Graphiken ... ?
xyx+y,   Skalierungsfaktor:      Skalierung: Modus: x, Faktor: 1
Darstellungszeitraum ... ?
Vom - - bis: - -   Zeitraum: 11.09.2021 - 11.09.2021
Min/Max/Avg-Anzeige ... ?
Zeige MMA aktuell
Zeige MMA Monat
Zeige MMA alles
Zeige --A aktuell
Zeige --A Monat
Zeige --A alles
Keine MMA-Anzeige
MMA:
Keine MMA-Graphiken
MMA-Basis: 11.09.2021 - 11.09.2021
Quicknavigation für Darstellung... ?
Tage:      1T, 2T, 3T, 5T -1T -2T -3T -5T +1T +2T +3T +5T
Wochen: 1W, 2W, 3W -1W -2W -3W +1W +2W +3W
Monate: 1M, 3M, 6M -1M -3M -6M +1M +3M +6M
Jahre:    1J, 3J, 5J, 10J -1J -3J -5J -10J +1J +3J +5J +10J
Nutze für die Darstellung ... ?
Originaldaten oder Mittelwerte auf ...
Stundenbasis Tagesbasis Wochenbasis
Monatsbasis Jahresbasis      Datenbasis: Original-Daten
Darstellen als:
Statistik (Auto) Statistik J:M      Darstellung:
Zur Graphik,    zurück zur Übersicht aller Sensoren.
 
Tabellarische Datenbersicht: ?
 
Sensor: Nr:Datum:Temp:Abs-Feuchte:Windchill:Wind:
Aussen-T/F 1 11-09-2021 00:00:00 17.9 C 14.2 g/m*3 17.9 C 0 km/h
2 11-09-2021 00:05:00 17.9 C 14.2 g/m*3 17.9 C 0 km/h
3 11-09-2021 00:10:00 17.9 C 14.2 g/m*3 17.9 C 0 km/h
4 11-09-2021 00:15:00 17.9 C 14.2 g/m*3 17.9 C 0 km/h
5 11-09-2021 00:20:00 17.8 C 14.12 g/m*3 17.8 C 1.6 km/h
6 11-09-2021 00:25:00 17.9 C 14.2 g/m*3 17.9 C 0 km/h
7 11-09-2021 00:30:00 17.9 C 14.2 g/m*3 17.9 C 0 km/h
8 11-09-2021 00:35:00 17.9 C 14.2 g/m*3 17.9 C 0 km/h
9 11-09-2021 00:40:00 17.8 C 14.12 g/m*3 17.8 C 0 km/h
10 11-09-2021 00:45:00 17.9 C 14.2 g/m*3 17.9 C 0 km/h
11 11-09-2021 00:50:00 17.8 C 14.12 g/m*3 17.8 C 0 km/h
12 11-09-2021 00:55:00 17.8 C 14.12 g/m*3 17.8 C 0 km/h
13 11-09-2021 01:00:00 17.8 C 14.27 g/m*3 17.8 C 3.2 km/h
14 11-09-2021 01:05:00 17.8 C 14.27 g/m*3 17.8 C 0 km/h
15 11-09-2021 01:10:00 17.8 C 14.27 g/m*3 17.8 C 0 km/h
16 11-09-2021 01:15:00 17.8 C 14.27 g/m*3 17.8 C 4.8 km/h
17 11-09-2021 01:20:00 17.9 C 14.35 g/m*3 17.9 C 0 km/h
18 11-09-2021 01:25:00 17.9 C 14.35 g/m*3 17.9 C 8.1 km/h
19 11-09-2021 01:30:00 17.9 C 14.35 g/m*3 17.9 C 0 km/h
20 11-09-2021 01:35:00 17.9 C 14.35 g/m*3 17.9 C 1.6 km/h
21 11-09-2021 01:40:00 17.9 C 14.35 g/m*3 17.9 C 4.8 km/h
22 11-09-2021 01:45:00 18 C 14.28 g/m*3 18 C 3.2 km/h
23 11-09-2021 01:50:00 18 C 14.28 g/m*3 18 C 1.6 km/h
24 11-09-2021 01:55:00 18 C 14.28 g/m*3 18 C 8.1 km/h
25 11-09-2021 02:00:00 18 C 14.28 g/m*3 18 C 4.8 km/h
Sensor: Nr:Datum:Temp:Abs-Feuchte:Windchill:Wind:
Aussen-T/F 26 11-09-2021 02:05:00 18.1 C 14.37 g/m*3 18.1 C 3.2 km/h
27 11-09-2021 02:10:00 18.1 C 14.37 g/m*3 18.1 C 0 km/h
28 11-09-2021 02:15:00 18.1 C 14.37 g/m*3 18.1 C 0 km/h
29 11-09-2021 02:20:00 18.2 C 14.46 g/m*3 18.2 C 4.8 km/h
30 11-09-2021 02:25:00 18.2 C 14.46 g/m*3 18.2 C 3.2 km/h
31 11-09-2021 02:30:00 18.2 C 14.46 g/m*3 18.2 C 0 km/h
32 11-09-2021 02:35:00 18.2 C 14.46 g/m*3 18.2 C 6.4 km/h
33 11-09-2021 02:40:00 18.2 C 14.46 g/m*3 18.2 C 1.6 km/h
34 11-09-2021 02:45:00 18.2 C 14.46 g/m*3 18.2 C 0 km/h
35 11-09-2021 02:50:00 18.2 C 14.46 g/m*3 18.2 C 1.6 km/h
36 11-09-2021 02:55:00 18.2 C 14.46 g/m*3 18.2 C 0 km/h
37 11-09-2021 03:00:00 18.1 C 14.37 g/m*3 18.1 C 0 km/h
38 11-09-2021 03:05:00 18.1 C 14.37 g/m*3 18.1 C 0 km/h
39 11-09-2021 03:10:00 17.9 C 14.05 g/m*3 17.9 C 0 km/h
40 11-09-2021 03:15:00 17.9 C 14.05 g/m*3 17.9 C 0 km/h
41 11-09-2021 03:20:00 17.8 C 14.12 g/m*3 17.8 C 0 km/h
42 11-09-2021 03:25:00 17.8 C 14.12 g/m*3 17.8 C 0 km/h
43 11-09-2021 03:30:00 17.7 C 14.03 g/m*3 17.7 C 3.2 km/h
44 11-09-2021 03:35:00 17.7 C 14.03 g/m*3 17.7 C 0 km/h
45 11-09-2021 03:40:00 17.7 C 14.03 g/m*3 17.7 C 0 km/h
46 11-09-2021 03:45:00 17.7 C 14.03 g/m*3 17.7 C 0 km/h
47 11-09-2021 03:50:00 17.7 C 14.03 g/m*3 17.7 C 0 km/h
48 11-09-2021 03:55:00 17.7 C 14.18 g/m*3 17.7 C 0 km/h
49 11-09-2021 04:00:00 17.7 C 14.18 g/m*3 17.7 C 0 km/h
50 11-09-2021 04:05:00 17.7 C 14.18 g/m*3 17.7 C 0 km/h
Sensor: Nr:Datum:Temp:Abs-Feuchte:Windchill:Wind:
Aussen-T/F 51 11-09-2021 04:10:00 17.7 C 14.18 g/m*3 17.7 C 0 km/h
52 11-09-2021 04:15:00 17.7 C 14.18 g/m*3 17.7 C 0 km/h
53 11-09-2021 04:20:00 17.7 C 14.18 g/m*3 17.7 C 0 km/h
54 11-09-2021 04:25:00 17.7 C 14.18 g/m*3 17.7 C 0 km/h
55 11-09-2021 04:30:00 17.8 C 14.27 g/m*3 17.8 C 0 km/h
56 11-09-2021 04:35:00 17.8 C 14.27 g/m*3 17.8 C 0 km/h
57 11-09-2021 04:40:00 17.8 C 14.27 g/m*3 17.8 C 0 km/h
58 11-09-2021 04:45:00 17.8 C 14.27 g/m*3 17.8 C 0 km/h
59 11-09-2021 04:50:00 17.8 C 14.27 g/m*3 17.8 C 0 km/h
60 11-09-2021 04:55:00 17.8 C 14.27 g/m*3 17.8 C 0 km/h
61 11-09-2021 05:00:00 17.7 C 14.18 g/m*3 17.7 C 0 km/h
62 11-09-2021 05:05:00 17.7 C 14.18 g/m*3 17.7 C 0 km/h
63 11-09-2021 05:10:00 17.6 C 14.1 g/m*3 17.6 C 0 km/h
64 11-09-2021 05:15:00 17.6 C 14.1 g/m*3 17.6 C 3.2 km/h
65 11-09-2021 05:20:00 17.6 C 14.1 g/m*3 17.6 C 1.6 km/h
66 11-09-2021 05:25:00 17.6 C 14.1 g/m*3 17.6 C 0 km/h
67 11-09-2021 05:30:00 17.6 C 14.1 g/m*3 17.6 C 1.6 km/h
68 11-09-2021 05:35:00 17.6 C 14.1 g/m*3 17.6 C 0 km/h
69 11-09-2021 05:40:00 17.6 C 14.1 g/m*3 17.6 C 0 km/h
70 11-09-2021 05:45:00 17.6 C 14.1 g/m*3 17.6 C 1.6 km/h
71 11-09-2021 05:50:00 17.6 C 14.1 g/m*3 17.6 C 1.6 km/h
72 11-09-2021 05:55:00 17.6 C 14.25 g/m*3 17.6 C 4.8 km/h
73 11-09-2021 06:00:00 17.7 C 14.33 g/m*3 17.7 C 0 km/h
74 11-09-2021 06:05:00 17.7 C 14.33 g/m*3 17.7 C 4.8 km/h
75 11-09-2021 06:10:00 17.8 C 14.42 g/m*3 17.8 C 1.6 km/h
Sensor: Nr:Datum:Temp:Abs-Feuchte:Windchill:Wind:
Aussen-T/F 76 11-09-2021 06:15:00 17.8 C 14.42 g/m*3 17.8 C 1.6 km/h
77 11-09-2021 06:20:00 17.8 C 14.42 g/m*3 17.8 C 1.6 km/h
78 11-09-2021 06:25:00 17.9 C 14.35 g/m*3 17.9 C 3.2 km/h
79 11-09-2021 06:30:00 17.9 C 14.35 g/m*3 17.9 C 0 km/h
80 11-09-2021 06:35:00 17.9 C 14.35 g/m*3 17.9 C 1.6 km/h
81 11-09-2021 06:40:00 17.9 C 14.35 g/m*3 17.9 C 1.6 km/h
82 11-09-2021 06:45:00 17.9 C 14.35 g/m*3 17.9 C 0 km/h
83 11-09-2021 06:50:00 17.8 C 14.27 g/m*3 17.8 C 1.6 km/h
84 11-09-2021 06:55:00 17.8 C 14.27 g/m*3 17.8 C 4.8 km/h
85 11-09-2021 07:00:00 17.7 C 14.18 g/m*3 17.7 C 1.6 km/h
86 11-09-2021 07:05:00 17.7 C 14.18 g/m*3 17.7 C 1.6 km/h
87 11-09-2021 07:10:00 17.7 C 14.18 g/m*3 17.7 C 0 km/h
88 11-09-2021 07:15:00 17.7 C 14.18 g/m*3 17.7 C 0 km/h
89 11-09-2021 07:20:00 17.7 C 14.18 g/m*3 17.7 C 0 km/h
90 11-09-2021 07:25:00 17.8 C 14.27 g/m*3 17.8 C 3.2 km/h
91 11-09-2021 07:30:00 17.8 C 14.27 g/m*3 17.8 C 1.6 km/h
92 11-09-2021 07:35:00 17.9 C 14.35 g/m*3 17.9 C 0 km/h
93 11-09-2021 07:40:00 17.9 C 14.35 g/m*3 17.9 C 0 km/h
94 11-09-2021 07:45:00 18 C 14.44 g/m*3 18 C 4.8 km/h
95 11-09-2021 07:50:00 18 C 14.44 g/m*3 18 C 0 km/h
96 11-09-2021 07:55:00 18.1 C 14.52 g/m*3 18.1 C 0 km/h
97 11-09-2021 08:00:00 18.1 C 14.52 g/m*3 18.1 C 3.2 km/h
98 11-09-2021 08:05:00 18.2 C 14.61 g/m*3 18.2 C 0 km/h
99 11-09-2021 08:10:00 18.2 C 14.61 g/m*3 18.2 C 3.2 km/h
100 11-09-2021 08:15:00 18.3 C 14.7 g/m*3 18.3 C 3.2 km/h
Sensor: Nr:Datum:Temp:Abs-Feuchte:Windchill:Wind:
Aussen-T/F 101 11-09-2021 08:20:00 18.3 C 14.7 g/m*3 18.3 C 0 km/h
102 11-09-2021 08:25:00 18.3 C 14.7 g/m*3 18.3 C 0 km/h
103 11-09-2021 08:30:00 18.3 C 14.7 g/m*3 18.3 C 6.4 km/h
104 11-09-2021 08:35:00 18.3 C 14.54 g/m*3 18.3 C 6.4 km/h
105 11-09-2021 08:40:00 18.1 C 14.06 g/m*3 18.1 C 9.7 km/h
106 11-09-2021 08:45:00 18 C 13.98 g/m*3 18 C 9.7 km/h
107 11-09-2021 08:50:00 18 C 14.13 g/m*3 18 C 0 km/h
108 11-09-2021 08:55:00 17.9 C 14.05 g/m*3 17.9 C 0 km/h
109 11-09-2021 09:00:00 17.9 C 14.05 g/m*3 17.9 C 0 km/h
110 11-09-2021 09:05:00 17.9 C 14.2 g/m*3 17.9 C 0 km/h
111 11-09-2021 09:10:00 18 C 14.28 g/m*3 18 C 0 km/h
112 11-09-2021 09:15:00 18.1 C 14.37 g/m*3 18.1 C 0 km/h
113 11-09-2021 09:20:00 18.1 C 14.52 g/m*3 18.1 C 0 km/h
114 11-09-2021 09:25:00 18.2 C 14.46 g/m*3 18.2 C 1.6 km/h
115 11-09-2021 09:30:00 18.1 C 14.37 g/m*3 18.1 C 0 km/h
116 11-09-2021 09:35:00 18.1 C 14.37 g/m*3 18.1 C 0 km/h
117 11-09-2021 09:40:00 18.2 C 14.46 g/m*3 18.2 C 0 km/h
118 11-09-2021 09:45:00 18.3 C 14.54 g/m*3 18.3 C 0 km/h
119 11-09-2021 09:50:00 18.4 C 14.78 g/m*3 18.4 C 0 km/h
120 11-09-2021 09:55:00 18.4 C 14.63 g/m*3 18.4 C 0 km/h
121 11-09-2021 10:00:00 18.5 C 14.71 g/m*3 18.5 C 0 km/h
122 11-09-2021 10:05:00 18.6 C 14.8 g/m*3 18.6 C 0 km/h
123 11-09-2021 10:10:00 18.7 C 14.89 g/m*3 18.7 C 0 km/h
124 11-09-2021 10:15:00 18.7 C 14.73 g/m*3 18.7 C 0 km/h
125 11-09-2021 10:20:00 18.6 C 14.64 g/m*3 18.6 C 0 km/h
Sensor: Nr:Datum:Temp:Abs-Feuchte:Windchill:Wind:
Aussen-T/F 126 11-09-2021 10:25:00 18.4 C 14.31 g/m*3 18.4 C 0 km/h
127 11-09-2021 10:30:00 18.3 C 14.23 g/m*3 18.3 C 0 km/h
128 11-09-2021 10:35:00 18.2 C 14.14 g/m*3 18.2 C 0 km/h
129 11-09-2021 10:40:00 18.1 C 14.21 g/m*3 18.1 C 0 km/h
130 11-09-2021 10:45:00 18.2 C 14.3 g/m*3 18.2 C 1.6 km/h
131 11-09-2021 10:50:00 18.2 C 14.3 g/m*3 18.2 C 1.6 km/h
132 11-09-2021 10:55:00 18.3 C 14.38 g/m*3 18.3 C 0 km/h
133 11-09-2021 11:00:00 18.3 C 14.23 g/m*3 18.3 C 1.6 km/h
134 11-09-2021 11:05:00 18.3 C 14.07 g/m*3 18.3 C 1.6 km/h
135 11-09-2021 11:10:00 18.4 C 14.16 g/m*3 18.4 C 0 km/h
136 11-09-2021 11:15:00 18.4 C 14.31 g/m*3 18.4 C 0 km/h
137 11-09-2021 11:20:00 18.6 C 14.48 g/m*3 18.6 C 0 km/h
138 11-09-2021 11:25:00 18.7 C 14.73 g/m*3 18.7 C 0 km/h
139 11-09-2021 11:30:00 18.8 C 14.82 g/m*3 18.8 C 3.2 km/h
140 11-09-2021 11:35:00 18.9 C 14.74 g/m*3 18.9 C 3.2 km/h
141 11-09-2021 11:40:00 19.2 C 14.84 g/m*3 19.2 C 3.2 km/h
142 11-09-2021 11:45:00 19.4 C 15.02 g/m*3 19.4 C 0 km/h
143 11-09-2021 11:50:00 19.6 C 14.86 g/m*3 19.6 C 3.2 km/h
144 11-09-2021 11:55:00 19.7 C 14.94 g/m*3 19.7 C 3.2 km/h
145 11-09-2021 12:00:00 19.8 C 15.2 g/m*3 19.8 C 0 km/h
146 11-09-2021 12:05:00 19.9 C 15.29 g/m*3 19.9 C 0 km/h
147 11-09-2021 12:10:00 20.1 C 15.64 g/m*3 20.1 C 0 km/h
148 11-09-2021 12:15:00 20.2 C 15.74 g/m*3 20.2 C 0 km/h
149 11-09-2021 12:20:00 20.3 C 16 g/m*3 20.3 C 1.6 km/h
150 11-09-2021 12:25:00 20.3 C 15.83 g/m*3 20.3 C 1.6 km/h
Sensor: Nr:Datum:Temp:Abs-Feuchte:Windchill:Wind:
Aussen-T/F 151 11-09-2021 12:30:00 20.3 C 15.48 g/m*3 20.3 C 0 km/h
152 11-09-2021 12:35:00 20.4 C 15.39 g/m*3 20.4 C 1.6 km/h
153 11-09-2021 12:40:00 20.4 C 15.57 g/m*3 20.4 C 0 km/h
154 11-09-2021 12:45:00 20.5 C 15.66 g/m*3 20.5 C 0 km/h
155 11-09-2021 12:50:00 20.6 C 15.75 g/m*3 20.6 C 0 km/h
156 11-09-2021 12:55:00 20.5 C 15.48 g/m*3 20.5 C 0 km/h
157 11-09-2021 13:00:00 20.5 C 15.3 g/m*3 20.5 C 1.6 km/h
158 11-09-2021 13:05:00 20.6 C 15.03 g/m*3 20.6 C 1.6 km/h
159 11-09-2021 13:10:00 20.7 C 14.94 g/m*3 20.7 C 0 km/h
160 11-09-2021 13:15:00 20.7 C 14.94 g/m*3 20.7 C 1.6 km/h
161 11-09-2021 13:20:00 20.8 C 15.03 g/m*3 20.8 C 0 km/h
162 11-09-2021 13:25:00 20.9 C 14.93 g/m*3 20.9 C 0 km/h
163 11-09-2021 13:30:00 21.1 C 14.92 g/m*3 21.1 C 1.6 km/h
164 11-09-2021 13:35:00 21.1 C 15.29 g/m*3 21.1 C 0 km/h
165 11-09-2021 13:40:00 21.2 C 15.57 g/m*3 21.2 C 1.6 km/h
166 11-09-2021 13:45:00 21.2 C 15.38 g/m*3 21.2 C 1.6 km/h
167 11-09-2021 13:50:00 21.2 C 15.2 g/m*3 21.2 C 3.2 km/h
168 11-09-2021 13:55:00 21.2 C 15.75 g/m*3 21.2 C 0 km/h
169 11-09-2021 14:00:00 21.2 C 15.75 g/m*3 21.2 C 0 km/h
170 11-09-2021 14:05:00 21.1 C 15.85 g/m*3 21.1 C 0 km/h
171 11-09-2021 14:10:00 21 C 15.94 g/m*3 21 C 0 km/h
172 11-09-2021 14:15:00 20.9 C 15.84 g/m*3 20.9 C 3.2 km/h
173 11-09-2021 14:20:00 21 C 15.94 g/m*3 21 C 0 km/h
174 11-09-2021 14:25:00 21.1 C 16.21 g/m*3 21.1 C 0 km/h
175 11-09-2021 14:30:00 21.1 C 16.03 g/m*3 21.1 C 0 km/h
Sensor: Nr:Datum:Temp:Abs-Feuchte:Windchill:Wind:
Aussen-T/F 176 11-09-2021 14:35:00 21.2 C 15.75 g/m*3 21.2 C 0 km/h
177 11-09-2021 14:40:00 21.2 C 15.2 g/m*3 21.2 C 8.1 km/h
178 11-09-2021 14:45:00 21.3 C 14.35 g/m*3 21.3 C 9.7 km/h
179 11-09-2021 14:50:00 21.6 C 14.22 g/m*3 21.6 C 8.1 km/h
180 11-09-2021 14:55:00 21.8 C 14.58 g/m*3 21.8 C 3.2 km/h
181 11-09-2021 15:00:00 21.9 C 14.09 g/m*3 21.9 C 14.5 km/h
182 11-09-2021 15:05:00 22 C 14.75 g/m*3 22 C 3.2 km/h
183 11-09-2021 15:10:00 22.1 C 14.84 g/m*3 22.1 C 4.8 km/h
184 11-09-2021 15:15:00 22.2 C 14.14 g/m*3 22.2 C 4.8 km/h
185 11-09-2021 15:20:00 22.2 C 13.74 g/m*3 22.2 C 4.8 km/h
186 11-09-2021 15:25:00 22.3 C 13.62 g/m*3 22.3 C 4.8 km/h
187 11-09-2021 15:30:00 22.4 C 13.9 g/m*3 22.4 C 4.8 km/h
188 11-09-2021 15:35:00 22.6 C 13.66 g/m*3 22.6 C 4.8 km/h
189 11-09-2021 15:40:00 22.7 C 13.94 g/m*3 22.7 C 8.1 km/h
190 11-09-2021 15:45:00 22.7 C 13.54 g/m*3 22.7 C 6.4 km/h
191 11-09-2021 15:50:00 22.8 C 13.61 g/m*3 22.8 C 4.8 km/h
192 11-09-2021 15:55:00 22.8 C 13.82 g/m*3 22.8 C 8.1 km/h
193 11-09-2021 16:00:00 22.8 C 14.43 g/m*3 22.8 C 3.2 km/h
194 11-09-2021 16:05:00 22.7 C 13.54 g/m*3 22.7 C 4.8 km/h
195 11-09-2021 16:10:00 22.7 C 13.33 g/m*3 22.7 C 8.1 km/h
196 11-09-2021 16:15:00 22.6 C 13.66 g/m*3 22.6 C 6.4 km/h
197 11-09-2021 16:20:00 22.6 C 13.26 g/m*3 22.6 C 4.8 km/h
198 11-09-2021 16:25:00 22.5 C 13.58 g/m*3 22.5 C 6.4 km/h
199 11-09-2021 16:30:00 22.5 C 14.38 g/m*3 22.5 C 3.2 km/h
200 11-09-2021 16:35:00 22.4 C 15.09 g/m*3 22.4 C 4.8 km/h
Sensor: Nr:Datum:Temp:Abs-Feuchte:Windchill:Wind:
Aussen-T/F 201 11-09-2021 16:40:00 22.2 C 14.72 g/m*3 22.2 C 1.6 km/h
202 11-09-2021 16:45:00 21.9 C 13.12 g/m*3 21.9 C 9.7 km/h
203 11-09-2021 16:50:00 21.8 C 13.24 g/m*3 21.8 C 6.4 km/h
204 11-09-2021 16:55:00 21.9 C 14.09 g/m*3 21.9 C 4.8 km/h
205 11-09-2021 17:00:00 22.1 C 13.47 g/m*3 22.1 C 4.8 km/h
206 11-09-2021 17:05:00 22.3 C 13.43 g/m*3 22.3 C 4.8 km/h
207 11-09-2021 17:10:00 22.4 C 13.7 g/m*3 22.4 C 1.6 km/h
208 11-09-2021 17:15:00 22.3 C 13.62 g/m*3 22.3 C 3.2 km/h
209 11-09-2021 17:20:00 22.4 C 14.3 g/m*3 22.4 C 0 km/h
210 11-09-2021 17:25:00 22.4 C 14.89 g/m*3 22.4 C 0 km/h
211 11-09-2021 17:30:00 22.3 C 15.01 g/m*3 22.3 C 1.6 km/h
212 11-09-2021 17:35:00 22.1 C 14.45 g/m*3 22.1 C 1.6 km/h
213 11-09-2021 17:40:00 21.9 C 14.86 g/m*3 21.9 C 3.2 km/h
214 11-09-2021 17:45:00 21.7 C 14.12 g/m*3 21.7 C 1.6 km/h
215 11-09-2021 17:50:00 21.6 C 14.79 g/m*3 21.6 C 1.6 km/h
216 11-09-2021 17:55:00 21.3 C 14.73 g/m*3 21.3 C 0 km/h
217 11-09-2021 18:00:00 21.2 C 15.01 g/m*3 21.2 C 0 km/h
218 11-09-2021 18:05:00 21.2 C 15.01 g/m*3 21.2 C 0 km/h
219 11-09-2021 18:10:00 21.2 C 14.83 g/m*3 21.2 C 0 km/h
220 11-09-2021 18:15:00 21.4 C 14.44 g/m*3 21.4 C 0 km/h
221 11-09-2021 18:20:00 21.8 C 13.62 g/m*3 21.8 C 0 km/h
222 11-09-2021 18:25:00 22.4 C 14.1 g/m*3 22.4 C 0 km/h
223 11-09-2021 18:30:00 23 C 13.77 g/m*3 23 C 3.2 km/h
224 11-09-2021 18:35:00 23.2 C 13.72 g/m*3 23.2 C 3.2 km/h
225 11-09-2021 18:40:00 23.3 C 14.84 g/m*3 23.3 C 0 km/h
Sensor: Nr:Datum:Temp:Abs-Feuchte:Windchill:Wind:
Aussen-T/F 226 11-09-2021 18:45:00 23.6 C 15.1 g/m*3 23.6 C 0 km/h
227 11-09-2021 18:50:00 23.7 C 15.83 g/m*3 23.7 C 0 km/h
228 11-09-2021 18:55:00 23.6 C 14.68 g/m*3 23.6 C 0 km/h
229 11-09-2021 19:00:00 23.3 C 13.17 g/m*3 23.3 C 3.2 km/h
230 11-09-2021 19:05:00 22.9 C 12.67 g/m*3 22.9 C 6.4 km/h
231 11-09-2021 19:10:00 22.7 C 13.13 g/m*3 22.7 C 4.8 km/h
232 11-09-2021 19:15:00 22.4 C 13.11 g/m*3 22.4 C 4.8 km/h
233 11-09-2021 19:20:00 22.1 C 12.49 g/m*3 22.1 C 8.1 km/h
234 11-09-2021 19:25:00 22 C 13.97 g/m*3 22 C 3.2 km/h
235 11-09-2021 19:30:00 21.8 C 13.81 g/m*3 21.8 C 1.6 km/h
236 11-09-2021 19:35:00 21.4 C 13.5 g/m*3 21.4 C 0 km/h
237 11-09-2021 19:40:00 21 C 13.74 g/m*3 21 C 0 km/h
238 11-09-2021 19:45:00 20.5 C 13.35 g/m*3 20.5 C 0 km/h
239 11-09-2021 19:50:00 20.1 C 13.21 g/m*3 20.1 C 0 km/h
240 11-09-2021 19:55:00 19.7 C 13.08 g/m*3 19.7 C 1.6 km/h
241 11-09-2021 20:00:00 19.4 C 13.01 g/m*3 19.4 C 0 km/h
242 11-09-2021 20:05:00 19.1 C 12.95 g/m*3 19.1 C 0 km/h
243 11-09-2021 20:10:00 18.9 C 12.96 g/m*3 18.9 C 0 km/h
244 11-09-2021 20:15:00 18.7 C 12.81 g/m*3 18.7 C 0 km/h
245 11-09-2021 20:20:00 18.5 C 12.82 g/m*3 18.5 C 0 km/h
246 11-09-2021 20:25:00 18.3 C 12.51 g/m*3 18.3 C 1.6 km/h
247 11-09-2021 20:30:00 18.2 C 12.59 g/m*3 18.2 C 1.6 km/h
248 11-09-2021 20:35:00 17.9 C 12.37 g/m*3 17.9 C 4.8 km/h
249 11-09-2021 20:40:00 17.7 C 12.22 g/m*3 17.7 C 4.8 km/h
250 11-09-2021 20:45:00 17.6 C 12.3 g/m*3 17.6 C 6.4 km/h
Sensor: Nr:Datum:Temp:Abs-Feuchte:Windchill:Wind:
Aussen-T/F 251 11-09-2021 20:50:00 17.3 C 12.23 g/m*3 17.3 C 4.8 km/h
252 11-09-2021 20:55:00 17.2 C 12.15 g/m*3 17.2 C 1.6 km/h
253 11-09-2021 21:00:00 17 C 12.15 g/m*3 17 C 4.8 km/h
254 11-09-2021 21:05:00 16.9 C 12.23 g/m*3 16.9 C 4.8 km/h
255 11-09-2021 21:10:00 16.8 C 12.15 g/m*3 16.8 C 6.4 km/h
256 11-09-2021 21:15:00 16.7 C 12.08 g/m*3 16.7 C 6.4 km/h
257 11-09-2021 21:20:00 16.6 C 12.15 g/m*3 16.6 C 6.4 km/h
258 11-09-2021 21:25:00 16.4 C 12 g/m*3 16.4 C 4.8 km/h
259 11-09-2021 21:30:00 16.4 C 12 g/m*3 16.4 C 6.4 km/h
260 11-09-2021 21:35:00 16.3 C 12.07 g/m*3 16.3 C 4.8 km/h
261 11-09-2021 21:40:00 16.3 C 12.07 g/m*3 16.3 C 1.6 km/h
262 11-09-2021 21:45:00 16.2 C 12 g/m*3 16.2 C 0 km/h
263 11-09-2021 21:50:00 16.2 C 12.14 g/m*3 16.2 C 3.2 km/h
264 11-09-2021 21:55:00 16.1 C 12.06 g/m*3 16.1 C 3.2 km/h
265 11-09-2021 22:00:00 15.9 C 11.92 g/m*3 15.9 C 3.2 km/h
266 11-09-2021 22:05:00 15.9 C 11.92 g/m*3 15.9 C 3.2 km/h
267 11-09-2021 22:10:00 15.8 C 11.98 g/m*3 15.8 C 3.2 km/h
268 11-09-2021 22:15:00 15.7 C 11.91 g/m*3 15.7 C 0 km/h
269 11-09-2021 22:20:00 15.7 C 11.91 g/m*3 15.7 C 0 km/h
270 11-09-2021 22:25:00 15.6 C 11.84 g/m*3 15.6 C 3.2 km/h
271 11-09-2021 22:30:00 15.5 C 11.9 g/m*3 15.5 C 0 km/h
272 11-09-2021 22:35:00 15.4 C 11.82 g/m*3 15.4 C 0 km/h
273 11-09-2021 22:40:00 15.4 C 11.82 g/m*3 15.4 C 0 km/h
274 11-09-2021 22:45:00 15.3 C 11.75 g/m*3 15.3 C 1.6 km/h
275 11-09-2021 22:50:00 15.3 C 11.75 g/m*3 15.3 C 0 km/h
Sensor: Nr:Datum:Temp:Abs-Feuchte:Windchill:Wind:
Aussen-T/F 276 11-09-2021 22:55:00 15.2 C 11.81 g/m*3 15.2 C 0 km/h
277 11-09-2021 23:00:00 15.1 C 11.74 g/m*3 15.1 C 0 km/h
278 11-09-2021 23:05:00 15.1 C 11.74 g/m*3 15.1 C 0 km/h
279 11-09-2021 23:10:00 14.9 C 11.6 g/m*3 14.9 C 0 km/h
280 11-09-2021 23:15:00 14.9 C 11.6 g/m*3 14.9 C 0 km/h
281 11-09-2021 23:20:00 14.8 C 11.53 g/m*3 14.8 C 0 km/h
282 11-09-2021 23:25:00 14.8 C 11.53 g/m*3 14.8 C 0 km/h
283 11-09-2021 23:30:00 14.7 C 11.46 g/m*3 14.7 C 0 km/h
284 11-09-2021 23:35:00 14.7 C 11.58 g/m*3 14.7 C 0 km/h
285 11-09-2021 23:40:00 14.8 C 11.65 g/m*3 14.8 C 0 km/h
286 11-09-2021 23:45:00 14.8 C 11.65 g/m*3 14.8 C 0 km/h
287 11-09-2021 23:50:00 14.9 C 11.85 g/m*3 14.9 C 0 km/h
288 11-09-2021 23:55:00 14.9 C 11.85 g/m*3 14.9 C 0 km/h

Legende:
   Min
   Max


Maximal/Minimal-Werte vom 11.09.2021 - 11.09.2021

Sensor Min Max Avg
Temp
(Aussen-T/F)
14.7 °C
11-09-2021  23:30:00
23.7 °C
11-09-2021  18:50:00
18.95 °C
Abs-Feuchte
(Aussen-T/F)
11.46 g/m*3
11-09-2021  23:30:00
16.21 g/m*3
11-09-2021  14:25:00
13.97 g/m*3
Windchill
(Aussen-T/F)
14.7 C
11-09-2021  23:30:00
23.7 C
11-09-2021  18:50:00
18.89 C

Die Daten stammen von einer Davis Vantage Pro 2 Wetter-Station und werden unter Linux mit der Software wview2wettercgi und aufbereitet. Alle Angaben erfolgen ohne Gewähr für ihre Vollständigkeit oder Richtigkeit.
Kontakt: Rainer Krienke krienke@uni-koblenz.de . Meine Webseiten an der Uni Koblenz oder privat.
Version: $Revision: 0.78 $